Aviation Digital Data Service (ADDS)

Output produced by METARs form (0320 UTC 18 June 2019)
found at http://www.aviationweather.gov/metar/data/
 
METAR text: ZHHH 180300Z 32002MPS 280V020 7000 FEW007 SCT015 OVC033 25/23 Q1007 NOSIG
Conditions at: ZHHH (WUHAN/NANHU , CN) observed 0300 UTC 18 June 2019
Temperature: 25.0°C (77°F)
Dewpoint: 23.0°C (73°F) [RH = 89%]
Pressure (altimeter): 29.73 inches Hg (1007.0 mb)
Winds: from the NW (320 degrees) at 5 MPH (4 knots; 2.1 m/s)
Visibility: 4 miles ( 7 km)
Ceiling: 3300 feet AGL
Clouds: few clouds at 700 feet AGL
scattered clouds at 1500 feet AGL
overcast cloud deck at 3300 feet AGL
Weather: no significant weather observed at this time

METAR text: ZHHH 180200Z VRB01MPS 7000 FEW005 SCT007 OVC033 24/24 Q1007 NOSIG
Conditions at: ZHHH (WUHAN/NANHU , CN) observed 0200 UTC 18 June 2019
Temperature: 24.0°C (75°F)
Dewpoint: 24.0°C (75°F) [RH = 100%]
Pressure (altimeter): 29.73 inches Hg (1007.0 mb)
Winds: variable direction winds at 2 MPH (2 knots; 1.0 m/s)
Visibility: 4 miles ( 7 km)
Ceiling: 3300 feet AGL
Clouds: few clouds at 500 feet AGL
scattered clouds at 700 feet AGL
overcast cloud deck at 3300 feet AGL
Weather: no significant weather observed at this time

METAR text: ZHHH 180100Z 34002MPS 310V020 7000 FEW005 SCT007 OVC033 23/23 Q1007 NOSIG
Conditions at: ZHHH (WUHAN/NANHU , CN) observed 0100 UTC 18 June 2019
Temperature: 23.0°C (73°F)
Dewpoint: 23.0°C (73°F) [RH = 100%]
Pressure (altimeter): 29.73 inches Hg (1007.0 mb)
Winds: from the NNW (340 degrees) at 5 MPH (4 knots; 2.1 m/s)
Visibility: 4 miles ( 7 km)
Ceiling: 3300 feet AGL
Clouds: few clouds at 500 feet AGL
scattered clouds at 700 feet AGL
overcast cloud deck at 3300 feet AGL
Weather: no significant weather observed at this time

METAR text: ZHHH 180000Z 02003MPS 350V050 4000 BR FEW004 SCT006 OVC033 23/23 Q1006 NOSIG
Conditions at: ZHHH (WUHAN/NANHU , CN) observed 0000 UTC 18 June 2019
Temperature: 23.0°C (73°F)
Dewpoint: 23.0°C (73°F) [RH = 100%]
Pressure (altimeter): 29.70 inches Hg (1006.0 mb)
Winds: from the NNE (20 degrees) at 7 MPH (6 knots; 3.1 m/s)
Visibility: 2.49 miles (4.01 km)
Ceiling: 3300 feet AGL
Clouds: few clouds at 400 feet AGL
scattered clouds at 600 feet AGL
overcast cloud deck at 3300 feet AGL
Weather: BR  (mist)

METAR text: ZHHH 172300Z 02003MPS 1800 -RA BR SCT003 SCT005 OVC033 22/22 Q1006 NOSIG
Conditions at: ZHHH (WUHAN/NANHU , CN) observed 2300 UTC 17 June 2019
Temperature: 22.0°C (72°F)
Dewpoint: 22.0°C (72°F) [RH = 100%]
Pressure (altimeter): 29.70 inches Hg (1006.0 mb)
Winds: from the NNE (20 degrees) at 7 MPH (6 knots; 3.1 m/s)
Visibility: 1.12 miles (1.80 km)
Ceiling: 3300 feet AGL
Clouds: scattered clouds at 300 feet AGL
scattered clouds at 500 feet AGL
overcast cloud deck at 3300 feet AGL
Weather: -RA BR  (light rain, mist)

METAR text: ZHHH 172200Z 03003MPS 2000 -RA BR SCT003 SCT005 OVC033 22/22 Q1006 BECMG TL2240 RA
Conditions at: ZHHH (WUHAN/NANHU , CN) observed 2200 UTC 17 June 2019
Temperature: 22.0°C (72°F)
Dewpoint: 22.0°C (72°F) [RH = 100%]
Pressure (altimeter): 29.70 inches Hg (1006.0 mb)
Winds: from the NNE (30 degrees) at 7 MPH (6 knots; 3.1 m/s)
Visibility: 1.24 miles (2.00 km)
Ceiling: 3300 feet AGL
Clouds: scattered clouds at 300 feet AGL
scattered clouds at 500 feet AGL
overcast cloud deck at 3300 feet AGL
Weather: -RA BR  (light rain, mist)

METAR text: ZHHH 172100Z 03003MPS 2000 -RA BR SCT003 SCT005 OVC033 23/23 Q1006 NOSIG
Conditions at: ZHHH (WUHAN/NANHU , CN) observed 2100 UTC 17 June 2019
Temperature: 23.0°C (73°F)
Dewpoint: 23.0°C (73°F) [RH = 100%]
Pressure (altimeter): 29.70 inches Hg (1006.0 mb)
Winds: from the NNE (30 degrees) at 7 MPH (6 knots; 3.1 m/s)
Visibility: 1.24 miles (2.00 km)
Ceiling: 3300 feet AGL
Clouds: scattered clouds at 300 feet AGL
scattered clouds at 500 feet AGL
overcast cloud deck at 3300 feet AGL
Weather: -RA BR  (light rain, mist)

METAR text: ZHHH 172000Z 06002MPS 2000 -RA BR SCT003 SCT005 OVC033 22/22 Q1005 NOSIG
Conditions at: ZHHH (WUHAN/NANHU , CN) observed 2000 UTC 17 June 2019
Temperature: 22.0°C (72°F)
Dewpoint: 22.0°C (72°F) [RH = 100%]
Pressure (altimeter): 29.68 inches Hg (1005.0 mb)
Winds: from the ENE (60 degrees) at 5 MPH (4 knots; 2.1 m/s)
Visibility: 1.24 miles (2.00 km)
Ceiling: 3300 feet AGL
Clouds: scattered clouds at 300 feet AGL
scattered clouds at 500 feet AGL
overcast cloud deck at 3300 feet AGL
Weather: -RA BR  (light rain, mist)

METAR text: ZHHH 171900Z 06001MPS 2500 -RA BR SCT004 SCT006 OVC033 22/22 Q1005 NOSIG
Conditions at: ZHHH (WUHAN/NANHU , CN) observed 1900 UTC 17 June 2019
Temperature: 22.0°C (72°F)
Dewpoint: 22.0°C (72°F) [RH = 100%]
Pressure (altimeter): 29.68 inches Hg (1005.0 mb)
Winds: from the ENE (60 degrees) at 2 MPH (2 knots; 1.0 m/s)
Visibility: 1.55 miles (2.49 km)
Ceiling: 3300 feet AGL
Clouds: scattered clouds at 400 feet AGL
scattered clouds at 600 feet AGL
overcast cloud deck at 3300 feet AGL
Weather: -RA BR  (light rain, mist)

METAR text: ZHHH 171800Z 09002MPS 3000 -RA BR SCT004 SCT006 OVC033 22/22 Q1006 NOSIG
Conditions at: ZHHH (WUHAN/NANHU , CN) observed 1800 UTC 17 June 2019
Temperature: 22.0°C (72°F)
Dewpoint: 22.0°C (72°F) [RH = 100%]
Pressure (altimeter): 29.70 inches Hg (1006.0 mb)
Winds: from the E (90 degrees) at 5 MPH (4 knots; 2.1 m/s)
Visibility: 1.86 miles (2.99 km)
Ceiling: 3300 feet AGL
Clouds: scattered clouds at 400 feet AGL
scattered clouds at 600 feet AGL
overcast cloud deck at 3300 feet AGL
Weather: -RA BR  (light rain, mist)

METAR text: ZHHH 171700Z 08002MPS 3000 -RA BR SCT004 SCT006 OVC033 22/22 Q1006 NOSIG
Conditions at: ZHHH (WUHAN/NANHU , CN) observed 1700 UTC 17 June 2019
Temperature: 22.0°C (72°F)
Dewpoint: 22.0°C (72°F) [RH = 100%]
Pressure (altimeter): 29.70 inches Hg (1006.0 mb)
Winds: from the E (80 degrees) at 5 MPH (4 knots; 2.1 m/s)
Visibility: 1.86 miles (2.99 km)
Ceiling: 3300 feet AGL
Clouds: scattered clouds at 400 feet AGL
scattered clouds at 600 feet AGL
overcast cloud deck at 3300 feet AGL
Weather: -RA BR  (light rain, mist)

METAR text: ZHHH 171600Z VRB01MPS 3000 -RA BR SCT003 SCT005 OVC033 22/22 Q1007 NOSIG
Conditions at: ZHHH (WUHAN/NANHU , CN) observed 1600 UTC 17 June 2019
Temperature: 22.0°C (72°F)
Dewpoint: 22.0°C (72°F) [RH = 100%]
Pressure (altimeter): 29.73 inches Hg (1007.0 mb)
Winds: variable direction winds at 2 MPH (2 knots; 1.0 m/s)
Visibility: 1.86 miles (2.99 km)
Ceiling: 3300 feet AGL
Clouds: scattered clouds at 300 feet AGL
scattered clouds at 500 feet AGL
overcast cloud deck at 3300 feet AGL
Weather: -RA BR  (light rain, mist)

METAR text: ZHHH 171500Z 10002MPS 3500 -RA BR SCT003 SCT005 OVC033 22/22 Q1007 BECMG TL1620 2800 RA BR
Conditions at: ZHHH (WUHAN/NANHU , CN) observed 1500 UTC 17 June 2019
Temperature: 22.0°C (72°F)
Dewpoint: 22.0°C (72°F) [RH = 100%]
Pressure (altimeter): 29.73 inches Hg (1007.0 mb)
Winds: from the E (100 degrees) at 5 MPH (4 knots; 2.1 m/s)
Visibility: 2.17 miles (3.49 km)
Ceiling: 3300 feet AGL
Clouds: scattered clouds at 300 feet AGL
scattered clouds at 500 feet AGL
overcast cloud deck at 3300 feet AGL
Weather: -RA BR  (light rain, mist)

METAR text: ZHHH 171400Z 09003MPS 4000 -RA BR SCT003 SCT005 OVC033 22/22 Q1007 NOSIG
Conditions at: ZHHH (WUHAN/NANHU , CN) observed 1400 UTC 17 June 2019
Temperature: 22.0°C (72°F)
Dewpoint: 22.0°C (72°F) [RH = 100%]
Pressure (altimeter): 29.73 inches Hg (1007.0 mb)
Winds: from the E (90 degrees) at 7 MPH (6 knots; 3.1 m/s)
Visibility: 2.49 miles (4.01 km)
Ceiling: 3300 feet AGL
Clouds: scattered clouds at 300 feet AGL
scattered clouds at 500 feet AGL
overcast cloud deck at 3300 feet AGL
Weather: -RA BR  (light rain, mist)

METAR text: ZHHH 171300Z 08003MPS 4000 -RA BR SCT003 SCT005 OVC033 22/22 Q1007 NOSIG
Conditions at: ZHHH (WUHAN/NANHU , CN) observed 1300 UTC 17 June 2019
Temperature: 22.0°C (72°F)
Dewpoint: 22.0°C (72°F) [RH = 100%]
Pressure (altimeter): 29.73 inches Hg (1007.0 mb)
Winds: from the E (80 degrees) at 7 MPH (6 knots; 3.1 m/s)
Visibility: 2.49 miles (4.01 km)
Ceiling: 3300 feet AGL
Clouds: scattered clouds at 300 feet AGL
scattered clouds at 500 feet AGL
overcast cloud deck at 3300 feet AGL
Weather: -RA BR  (light rain, mist)

METAR text: ZHHH 171200Z 08002MPS 4000 -RA BR SCT005 SCT010 OVC033 22/22 Q1006 RERA BECMG TL1300 2800 RA BR
Conditions at: ZHHH (WUHAN/NANHU , CN) observed 1200 UTC 17 June 2019
Temperature: 22.0°C (72°F)
Dewpoint: 22.0°C (72°F) [RH = 100%]
Pressure (altimeter): 29.70 inches Hg (1006.0 mb)
Winds: from the E (80 degrees) at 5 MPH (4 knots; 2.1 m/s)
Visibility: 2.49 miles (4.01 km)
Ceiling: 3300 feet AGL
Clouds: scattered clouds at 500 feet AGL
scattered clouds at 1000 feet AGL
overcast cloud deck at 3300 feet AGL
Weather: -RA BR  (light rain, mist)

METAR text: ZHHH 171100Z VRB01MPS 2500 -RA BR SCT005 SCT010 OVC033 22/22 Q1006 RERA NOSIG
Conditions at: ZHHH (WUHAN/NANHU , CN) observed 1100 UTC 17 June 2019
Temperature: 22.0°C (72°F)
Dewpoint: 22.0°C (72°F) [RH = 100%]
Pressure (altimeter): 29.70 inches Hg (1006.0 mb)
Winds: variable direction winds at 2 MPH (2 knots; 1.0 m/s)
Visibility: 1.55 miles (2.49 km)
Ceiling: 3300 feet AGL
Clouds: scattered clouds at 500 feet AGL
scattered clouds at 1000 feet AGL
overcast cloud deck at 3300 feet AGL
Weather: -RA BR  (light rain, mist)

METAR text: ZHHH 171000Z 12003MPS 2000 +RA BR SCT005 SCT010 OVC033 22/22 Q1005 BECMG TL1040 3000 -RA
Conditions at: ZHHH (WUHAN/NANHU , CN) observed 1000 UTC 17 June 2019
Temperature: 22.0°C (72°F)
Dewpoint: 22.0°C (72°F) [RH = 100%]
Pressure (altimeter): 29.68 inches Hg (1005.0 mb)
Winds: from the ESE (120 degrees) at 7 MPH (6 knots; 3.1 m/s)
Visibility: 1.24 miles (2.00 km)
Ceiling: 3300 feet AGL
Clouds: scattered clouds at 500 feet AGL
scattered clouds at 1000 feet AGL
overcast cloud deck at 3300 feet AGL
Weather: +RA BR  (heavy rain, mist)

METAR text: ZHHH 170900Z 12003MPS 1700 RA BR SCT005 SCT010 OVC033 23/23 Q1005 BECMG TL1040 3000 -RA
Conditions at: ZHHH (WUHAN/NANHU , CN) observed 0900 UTC 17 June 2019
Temperature: 23.0°C (73°F)
Dewpoint: 23.0°C (73°F) [RH = 100%]
Pressure (altimeter): 29.68 inches Hg (1005.0 mb)
Winds: from the ESE (120 degrees) at 7 MPH (6 knots; 3.1 m/s)
Visibility: 1.06 miles (1.71 km)
Ceiling: 3300 feet AGL
Clouds: scattered clouds at 500 feet AGL
scattered clouds at 1000 feet AGL
overcast cloud deck at 3300 feet AGL
Weather: RA BR  (moderate rain, mist)

METAR text: ZHHH 170800Z 10003MPS 070V130 4000 -RA BR FEW005 SCT012 OVC033 23/23 Q1005 RERA NOSIG
Conditions at: ZHHH (WUHAN/NANHU , CN) observed 0800 UTC 17 June 2019
Temperature: 23.0°C (73°F)
Dewpoint: 23.0°C (73°F) [RH = 100%]
Pressure (altimeter): 29.68 inches Hg (1005.0 mb)
Winds: from the E (100 degrees) at 7 MPH (6 knots; 3.1 m/s)
Visibility: 2.49 miles (4.01 km)
Ceiling: 3300 feet AGL
Clouds: few clouds at 500 feet AGL
scattered clouds at 1200 feet AGL
overcast cloud deck at 3300 feet AGL
Weather: -RA BR  (light rain, mist)

METAR text: ZHHH 170700Z 11003MPS 2200 +RA BR SCT004 SCT008 OVC033 23/23 Q1006 BECMG TL0740 3000 -RA
Conditions at: ZHHH (WUHAN/NANHU , CN) observed 0700 UTC 17 June 2019
Temperature: 23.0°C (73°F)
Dewpoint: 23.0°C (73°F) [RH = 100%]
Pressure (altimeter): 29.70 inches Hg (1006.0 mb)
Winds: from the ESE (110 degrees) at 7 MPH (6 knots; 3.1 m/s)
Visibility: 1.37 miles (2.20 km)
Ceiling: 3300 feet AGL
Clouds: scattered clouds at 400 feet AGL
scattered clouds at 800 feet AGL
overcast cloud deck at 3300 feet AGL
Weather: +RA BR  (heavy rain, mist)

METAR text: ZHHH 170600Z 12003MPS 090V150 3800 -RA BR FEW005 SCT010 OVC040 23/23 Q1006 RERA NOSIG
Conditions at: ZHHH (WUHAN/NANHU , CN) observed 0600 UTC 17 June 2019
Temperature: 23.0°C (73°F)
Dewpoint: 23.0°C (73°F) [RH = 100%]
Pressure (altimeter): 29.70 inches Hg (1006.0 mb)
Winds: from the ESE (120 degrees) at 7 MPH (6 knots; 3.1 m/s)
Visibility: 2.36 miles (3.80 km)
Ceiling: 4000 feet AGL
Clouds: few clouds at 500 feet AGL
scattered clouds at 1000 feet AGL
overcast cloud deck at 4000 feet AGL
Weather: -RA BR  (light rain, mist)

METAR text: ZHHH 170500Z 11003MPS 080V140 2000 RA BR SCT004 SCT008 OVC033 23/23 Q1006 BECMG TL0610 3000 -RA
Conditions at: ZHHH (WUHAN/NANHU , CN) observed 0500 UTC 17 June 2019
Temperature: 23.0°C (73°F)
Dewpoint: 23.0°C (73°F) [RH = 100%]
Pressure (altimeter): 29.70 inches Hg (1006.0 mb)
Winds: from the ESE (110 degrees) at 7 MPH (6 knots; 3.1 m/s)
Visibility: 1.24 miles (2.00 km)
Ceiling: 3300 feet AGL
Clouds: scattered clouds at 400 feet AGL
scattered clouds at 800 feet AGL
overcast cloud deck at 3300 feet AGL
Weather: RA BR  (moderate rain, mist)

METAR text: ZHHH 170400Z 12003MPS 100V160 2800 -RA BR SCT005 SCT008 OVC033 22/22 Q1007 BECMG TL0510 3000 -RA
Conditions at: ZHHH (WUHAN/NANHU , CN) observed 0400 UTC 17 June 2019
Temperature: 22.0°C (72°F)
Dewpoint: 22.0°C (72°F) [RH = 100%]
Pressure (altimeter): 29.73 inches Hg (1007.0 mb)
Winds: from the ESE (120 degrees) at 7 MPH (6 knots; 3.1 m/s)
Visibility: 1.74 miles (2.80 km)
Ceiling: 3300 feet AGL
Clouds: scattered clouds at 500 feet AGL
scattered clouds at 800 feet AGL
overcast cloud deck at 3300 feet AGL
Weather: -RA BR  (light rain, mist)

METAR text: ZHHH 170300Z 11003MPS 4000 -RA BR SCT007 OVC033 22/22 Q1007 NOSIG
Conditions at: ZHHH (WUHAN/NANHU , CN) observed 0300 UTC 17 June 2019
Temperature: 22.0°C (72°F)
Dewpoint: 22.0°C (72°F) [RH = 100%]
Pressure (altimeter): 29.73 inches Hg (1007.0 mb)
Winds: from the ESE (110 degrees) at 7 MPH (6 knots; 3.1 m/s)
Visibility: 2.49 miles (4.01 km)
Ceiling: 3300 feet AGL
Clouds: scattered clouds at 700 feet AGL
overcast cloud deck at 3300 feet AGL
Weather: -RA BR  (light rain, mist)

METAR text: ZHHH 170200Z 12005MPS 4000 -RA BR SCT010 OVC033 22/22 Q1007 NOSIG
Conditions at: ZHHH (WUHAN/NANHU , CN) observed 0200 UTC 17 June 2019
Temperature: 22.0°C (72°F)
Dewpoint: 22.0°C (72°F) [RH = 100%]
Pressure (altimeter): 29.73 inches Hg (1007.0 mb)
Winds: from the ESE (120 degrees) at 12 MPH (10 knots; 5.1 m/s)
Visibility: 2.49 miles (4.01 km)
Ceiling: 3300 feet AGL
Clouds: scattered clouds at 1000 feet AGL
overcast cloud deck at 3300 feet AGL
Weather: -RA BR  (light rain, mist)

METAR text: ZHHH 170100Z 10005MPS 7000 -RA SCT015 OVC033 22/22 Q1007 NOSIG
Conditions at: ZHHH (WUHAN/NANHU , CN) observed 0100 UTC 17 June 2019
Temperature: 22.0°C (72°F)
Dewpoint: 22.0°C (72°F) [RH = 100%]
Pressure (altimeter): 29.73 inches Hg (1007.0 mb)
Winds: from the E (100 degrees) at 12 MPH (10 knots; 5.1 m/s)
Visibility: 4 miles ( 7 km)
Ceiling: 3300 feet AGL
Clouds: scattered clouds at 1500 feet AGL
overcast cloud deck at 3300 feet AGL
Weather: -RA  (light rain)

METAR text: ZHHH 170000Z 10004MPS 5000 -RA BR SCT015 OVC033 23/23 Q1007 NOSIG
Conditions at: ZHHH (WUHAN/NANHU , CN) observed 0000 UTC 17 June 2019
Temperature: 23.0°C (73°F)
Dewpoint: 23.0°C (73°F) [RH = 100%]
Pressure (altimeter): 29.73 inches Hg (1007.0 mb)
Winds: from the E (100 degrees) at 9 MPH (8 knots; 4.1 m/s)
Visibility: 3 miles ( 5 km)
Ceiling: 3300 feet AGL
Clouds: scattered clouds at 1500 feet AGL
overcast cloud deck at 3300 feet AGL
Weather: -RA BR  (light rain, mist)

METAR text: ZHHH 162300Z 10004MPS 3500 -RA BR FEW005 SCT010 OVC033 23/23 Q1007 NOSIG
Conditions at: ZHHH (WUHAN/NANHU , CN) observed 2300 UTC 16 June 2019
Temperature: 23.0°C (73°F)
Dewpoint: 23.0°C (73°F) [RH = 100%]
Pressure (altimeter): 29.73 inches Hg (1007.0 mb)
Winds: from the E (100 degrees) at 9 MPH (8 knots; 4.1 m/s)
Visibility: 2.17 miles (3.49 km)
Ceiling: 3300 feet AGL
Clouds: few clouds at 500 feet AGL
scattered clouds at 1000 feet AGL
overcast cloud deck at 3300 feet AGL
Weather: -RA BR  (light rain, mist)

METAR text: ZHHH 162200Z 08003MPS 3000 -RA BR FEW005 SCT010 OVC040 23/23 Q1006 NOSIG
Conditions at: ZHHH (WUHAN/NANHU , CN) observed 2200 UTC 16 June 2019
Temperature: 23.0°C (73°F)
Dewpoint: 23.0°C (73°F) [RH = 100%]
Pressure (altimeter): 29.70 inches Hg (1006.0 mb)
Winds: from the E (80 degrees) at 7 MPH (6 knots; 3.1 m/s)
Visibility: 1.86 miles (2.99 km)
Ceiling: 4000 feet AGL
Clouds: few clouds at 500 feet AGL
scattered clouds at 1000 feet AGL
overcast cloud deck at 4000 feet AGL
Weather: -RA BR  (light rain, mist)

METAR text: ZHHH 162100Z 10003MPS 3500 -RA BR SCT004 SCT007 OVC040 22/22 Q1006 NOSIG
Conditions at: ZHHH (WUHAN/NANHU , CN) observed 2100 UTC 16 June 2019
Temperature: 22.0°C (72°F)
Dewpoint: 22.0°C (72°F) [RH = 100%]
Pressure (altimeter): 29.70 inches Hg (1006.0 mb)
Winds: from the E (100 degrees) at 7 MPH (6 knots; 3.1 m/s)
Visibility: 2.17 miles (3.49 km)
Ceiling: 4000 feet AGL
Clouds: scattered clouds at 400 feet AGL
scattered clouds at 700 feet AGL
overcast cloud deck at 4000 feet AGL
Weather: -RA BR  (light rain, mist)

METAR text: ZHHH 162000Z 10003MPS 3500 -RA BR SCT004 SCT007 OVC040 22/22 Q1006 NOSIG
Conditions at: ZHHH (WUHAN/NANHU , CN) observed 2000 UTC 16 June 2019
Temperature: 22.0°C (72°F)
Dewpoint: 22.0°C (72°F) [RH = 100%]
Pressure (altimeter): 29.70 inches Hg (1006.0 mb)
Winds: from the E (100 degrees) at 7 MPH (6 knots; 3.1 m/s)
Visibility: 2.17 miles (3.49 km)
Ceiling: 4000 feet AGL
Clouds: scattered clouds at 400 feet AGL
scattered clouds at 700 feet AGL
overcast cloud deck at 4000 feet AGL
Weather: -RA BR  (light rain, mist)

METAR text: ZHHH 161900Z 10003MPS 3500 -RA BR FEW004 SCT007 OVC040 22/22 Q1006 NOSIG
Conditions at: ZHHH (WUHAN/NANHU , CN) observed 1900 UTC 16 June 2019
Temperature: 22.0°C (72°F)
Dewpoint: 22.0°C (72°F) [RH = 100%]
Pressure (altimeter): 29.70 inches Hg (1006.0 mb)
Winds: from the E (100 degrees) at 7 MPH (6 knots; 3.1 m/s)
Visibility: 2.17 miles (3.49 km)
Ceiling: 4000 feet AGL
Clouds: few clouds at 400 feet AGL
scattered clouds at 700 feet AGL
overcast cloud deck at 4000 feet AGL
Weather: -RA BR  (light rain, mist)

METAR text: ZHHH 161800Z 12003MPS 5000 -RA BR SCT006 SCT010 OVC040 23/23 Q1007 NOSIG
Conditions at: ZHHH (WUHAN/NANHU , CN) observed 1800 UTC 16 June 2019
Temperature: 23.0°C (73°F)
Dewpoint: 23.0°C (73°F) [RH = 100%]
Pressure (altimeter): 29.73 inches Hg (1007.0 mb)
Winds: from the ESE (120 degrees) at 7 MPH (6 knots; 3.1 m/s)
Visibility: 3 miles ( 5 km)
Ceiling: 4000 feet AGL
Clouds: scattered clouds at 600 feet AGL
scattered clouds at 1000 feet AGL
overcast cloud deck at 4000 feet AGL
Weather: -RA BR  (light rain, mist)

METAR text: ZHHH 161700Z 13003MPS 8000 -RA SCT015 23/23 Q1007 NOSIG
Conditions at: ZHHH (WUHAN/NANHU , CN) observed 1700 UTC 16 June 2019
Temperature: 23.0°C (73°F)
Dewpoint: 23.0°C (73°F) [RH = 100%]
Pressure (altimeter): 29.73 inches Hg (1007.0 mb)
Winds: from the SE (130 degrees) at 7 MPH (6 knots; 3.1 m/s)
Visibility: 5 miles ( 8 km)
Ceiling: at least 12,000 feet AGL
Clouds: scattered clouds at 1500 feet AGL
Weather: -RA  (light rain)

METAR text: ZHHH 161600Z 00000MPS 9999 -RA NSC 24/21 Q1007 NOSIG
Conditions at: ZHHH (WUHAN/NANHU , CN) observed 1600 UTC 16 June 2019
Temperature: 24.0°C (75°F)
Dewpoint: 21.0°C (70°F) [RH = 83%]
Pressure (altimeter): 29.73 inches Hg (1007.0 mb)
Winds: calm
Visibility: 6 or more miles (10+ km)
Ceiling: at least 12,000 feet AGL
Clouds: sky clear below 12,000 feet AGL
Weather: -RA  (light rain)

Forecast for: AMD
Text: TAF AMD ZHHH 180004Z 1800/1824 04003MPS 4000 BR SCT005 OVC040 TX27/1807Z TN23/1822Z
Forecast period: 0000 UTC 18 June 2019 to 0000 UTC 19 June 2019
Forecast type: FROM: standard forecast or significant change
Winds: from the NE (40 degrees) at 7 MPH (6 knots; 3.1 m/s)
Visibility: 2.49 miles (4.01 km)
Ceiling: 4000 feet AGL
Clouds: scattered clouds at 500 feet AGL
overcast cloud deck at 4000 feet AGL
Weather: BR  (mist)